Terminal Aerodrome Forecast
Issued by NWS

Home | Current Version | Previous Version | Text Only | Print | Product List | Glossary Off
Versions: 1 2 3 4 5 6 7 8 9 10 11 12 13 14 15 16 17 18

069
FTUS43 KABR 202108 AAA
TAFATY
TAF AMD
KATY 202108Z 2021/2118 33011KT P6SM SCT026 BKN035 OVC045
     FM202300 33012KT P6SM BKN040
     FM210800 00000KT 2SM BR FEW130
     FM211500 04004KT P6SM FEW200=

USA.gov is the U.S. government's official web portal to all federal, state and local government web resources and services.